createdAt,value
2023-04-25T00:02:07.904Z,1.60
2023-04-25T00:04:36.266Z,1.43
2023-04-25T00:07:06.401Z,1.40
2023-04-25T00:09:34.725Z,1.10
2023-04-25T00:12:03.012Z,1.07
2023-04-25T00:14:34.587Z,1.97
2023-04-25T00:17:03.637Z,1.20
2023-04-25T00:19:31.706Z,1.90
2023-04-25T00:21:59.963Z,2.60
2023-04-25T00:24:29.489Z,2.73
2023-04-25T00:26:57.533Z,1.10
2023-04-25T00:29:25.764Z,2.97
2023-04-25T00:31:53.886Z,1.67
2023-04-25T00:34:21.959Z,4.10
2023-04-25T00:36:50.098Z,3.87
2023-04-25T00:39:18.140Z,1.37
2023-04-25T00:41:48.007Z,1.50
2023-04-25T00:44:18.096Z,2.43
2023-04-25T00:46:46.671Z,3.43
2023-04-25T00:49:16.520Z,1.20
2023-04-25T00:51:46.075Z,2.23
2023-04-25T00:54:15.401Z,2.43
2023-04-25T00:56:44.107Z,2.90
2023-04-25T00:59:14.507Z,2.80
2023-04-25T01:01:45.267Z,1.77
2023-04-25T01:04:13.856Z,2.63
2023-04-25T01:06:42.632Z,3.50
2023-04-25T01:09:11.551Z,2.20
2023-04-25T01:11:41.195Z,2.97
2023-04-25T01:14:09.428Z,2.90
2023-04-25T01:16:39.126Z,3.87
2023-04-25T01:19:11.965Z,2.27
2023-04-25T01:21:41.715Z,3.97
2023-04-25T01:24:10.536Z,2.13
2023-04-25T01:26:39.409Z,3.17
2023-04-25T01:29:08.292Z,2.90
2023-04-25T01:31:38.141Z,2.67
2023-04-25T01:34:07.333Z,1.60
2023-04-25T01:36:36.314Z,2.90
2023-04-25T01:39:05.942Z,1.40
2023-04-25T01:41:35.463Z,2.07
2023-04-25T01:44:04.645Z,3.33
2023-04-25T01:46:32.810Z,6.63
2023-04-25T01:49:01.259Z,3.77
2023-04-25T01:51:29.695Z,3.17
2023-04-25T01:54:01.013Z,1.57
2023-04-25T01:56:34.629Z,4.57
2023-04-25T01:59:05.260Z,2.70
2023-04-25T02:02:05.780Z,2.73
2023-04-25T02:04:35.591Z,2.23
2023-04-25T02:07:05.973Z,3.00
2023-04-25T02:09:48.967Z,1.63
2023-04-25T02:12:20.069Z,1.60
2023-04-25T02:14:57.177Z,2.60
2023-04-25T02:17:37.250Z,2.20
2023-04-25T02:20:07.136Z,2.07
2023-04-25T02:22:36.393Z,3.10
2023-04-25T02:25:09.519Z,1.97
2023-04-25T02:27:39.872Z,2.50
2023-04-25T02:30:10.772Z,4.37
2023-04-25T02:32:38.918Z,1.90
2023-04-25T02:35:32.158Z,4.03
2023-04-25T02:38:00.335Z,2.80
2023-04-25T02:40:28.574Z,2.07
2023-04-25T02:42:57.939Z,4.33
2023-04-25T02:45:28.214Z,3.43
2023-04-25T02:47:57.244Z,4.87
2023-04-25T02:50:25.506Z,2.57
2023-04-25T02:52:53.597Z,3.20
2023-04-25T02:55:28.500Z,2.30
2023-04-25T02:57:59.658Z,2.77
2023-04-25T03:00:39.661Z,2.10
2023-04-25T03:03:07.897Z,1.70
2023-04-25T03:05:36.253Z,5.37
2023-04-25T03:08:04.826Z,2.60
2023-04-25T03:10:34.675Z,3.00
2023-04-25T03:13:08.048Z,5.73
2023-04-25T03:15:37.547Z,2.90
2023-04-25T03:18:05.959Z,2.67
2023-04-25T03:20:34.040Z,2.07
2023-04-25T03:23:02.086Z,3.17
2023-04-25T03:25:31.481Z,5.10
2023-04-25T03:27:59.939Z,2.97
2023-04-25T03:30:29.779Z,2.87
2023-04-25T03:32:57.972Z,3.10
2023-04-25T03:35:26.242Z,2.10
2023-04-25T03:37:54.753Z,2.47
2023-04-25T03:40:28.208Z,2.27
2023-04-25T03:43:10.602Z,3.07
2023-04-25T03:45:41.205Z,2.63
2023-04-25T03:48:09.392Z,2.33
2023-04-25T03:50:37.618Z,2.33
2023-04-25T03:53:06.486Z,2.83
2023-04-25T03:55:52.125Z,2.37
2023-04-25T03:58:20.360Z,2.37
2023-04-25T04:00:51.142Z,1.93
2023-04-25T04:03:19.610Z,3.23
2023-04-25T04:05:48.563Z,4.40
2023-04-25T04:08:16.614Z,2.17
2023-04-25T04:10:44.701Z,3.50
2023-04-25T04:13:13.293Z,4.03
2023-04-25T04:15:41.413Z,4.37
2023-04-25T04:18:11.824Z,4.13
2023-04-25T04:20:40.094Z,4.50
2023-04-25T04:23:08.929Z,4.03
2023-04-25T04:25:37.678Z,3.37
2023-04-25T04:28:12.007Z,3.83
2023-04-25T04:30:47.983Z,2.20
2023-04-25T04:33:17.445Z,2.57
2023-04-25T04:35:49.551Z,2.63
2023-04-25T04:38:19.530Z,3.33
2023-04-25T04:40:48.700Z,4.10
2023-04-25T04:43:37.631Z,3.27
2023-04-25T04:46:41.888Z,2.87
2023-04-25T04:49:23.445Z,3.20
2023-04-25T04:52:17.891Z,3.67
2023-04-25T04:55:03.196Z,3.73
2023-04-25T04:57:43.474Z,5.57
2023-04-25T05:00:16.600Z,4.23
2023-04-25T05:02:47.459Z,2.53
2023-04-25T05:05:40.820Z,4.17
2023-04-25T05:08:35.105Z,3.03
2023-04-25T05:11:26.152Z,5.20
2023-04-25T05:14:12.859Z,3.47
2023-04-25T05:16:59.683Z,2.97
2023-04-25T05:19:40.348Z,2.83
2023-04-25T05:22:19.687Z,4.10
2023-04-25T05:25:10.697Z,2.97
2023-04-25T05:27:53.537Z,2.57
2023-04-25T05:31:00.179Z,3.37
2023-04-25T05:33:38.372Z,3.37
2023-04-25T05:36:08.031Z,3.53
2023-04-25T05:38:37.658Z,1.77
2023-04-25T05:41:24.028Z,2.87
2023-04-25T05:44:13.710Z,3.20
2023-04-25T05:47:05.957Z,2.67
2023-04-25T05:49:52.675Z,2.90
2023-04-25T05:52:28.760Z,2.20
2023-04-25T05:55:09.058Z,2.23
2023-04-25T05:57:37.481Z,5.27
2023-04-25T06:00:10.257Z,2.87
2023-04-25T06:02:41.842Z,4.63
2023-04-25T06:05:11.947Z,3.60
2023-04-25T06:07:40.450Z,2.27
2023-04-25T06:10:12.744Z,2.30
2023-04-25T06:12:40.815Z,2.57
2023-04-25T06:15:24.407Z,3.30
2023-04-25T06:17:56.382Z,1.70
2023-04-25T06:20:25.552Z,3.50
2023-04-25T06:22:55.476Z,2.13
2023-04-25T06:25:33.164Z,4.47
2023-04-25T06:28:01.699Z,4.67
2023-04-25T06:30:31.950Z,5.27
2023-04-25T06:33:05.908Z,4.53
2023-04-25T06:35:34.666Z,5.23
2023-04-25T06:38:02.996Z,4.93
2023-04-25T06:40:33.922Z,3.93
2023-04-25T06:43:02.122Z,2.10
2023-04-25T06:45:48.794Z,2.57
2023-04-25T06:48:17.459Z,3.90
2023-04-25T06:50:45.843Z,3.33
2023-04-25T06:53:14.534Z,5.37
2023-04-25T06:55:46.771Z,3.77
2023-04-25T06:58:19.209Z,5.13
2023-04-25T07:00:56.284Z,2.87
2023-04-25T07:03:26.731Z,2.60
2023-04-25T07:05:59.768Z,3.87
2023-04-25T07:08:27.944Z,7.83
2023-04-25T07:10:57.486Z,4.63
2023-04-25T07:13:25.693Z,3.23
2023-04-25T07:15:56.022Z,4.60
2023-04-25T07:18:25.475Z,3.87
2023-04-25T07:20:53.935Z,3.47
2023-04-25T07:23:22.388Z,3.83
2023-04-25T07:25:50.549Z,3.83
2023-04-25T07:28:24.187Z,2.80
2023-04-25T07:30:52.250Z,5.10
2023-04-25T07:33:21.462Z,4.20
2023-04-25T07:35:49.829Z,9.73
2023-04-25T07:38:18.860Z,5.30
2023-04-25T07:40:47.189Z,4.43
2023-04-25T07:43:17.557Z,5.03
2023-04-25T07:45:58.048Z,3.60
2023-04-25T07:48:28.677Z,3.83
2023-04-25T07:50:58.344Z,5.17
2023-04-25T07:53:26.859Z,4.47
2023-04-25T07:56:00.200Z,3.13
2023-04-25T07:58:30.508Z,3.47
2023-04-25T08:01:03.346Z,3.57
2023-04-25T08:03:48.571Z,4.00
2023-04-25T08:06:23.598Z,3.37
2023-04-25T08:09:12.623Z,4.60
2023-04-25T08:11:43.950Z,3.47
2023-04-25T08:14:14.793Z,4.00
2023-04-25T08:16:46.229Z,3.67
2023-04-25T08:19:40.945Z,4.67
2023-04-25T08:22:14.201Z,2.97
2023-04-25T08:24:56.706Z,3.70
2023-04-25T08:27:25.060Z,3.37
2023-04-25T08:29:53.523Z,4.63
2023-04-25T08:32:23.707Z,4.53
2023-04-25T08:35:09.380Z,7.50
2023-04-25T08:37:37.964Z,4.97
2023-04-25T08:40:16.572Z,3.67
2023-04-25T08:42:59.889Z,3.17
2023-04-25T08:45:29.843Z,4.03
2023-04-25T08:48:00.795Z,4.40
2023-04-25T08:50:29.686Z,6.23
2023-04-25T08:53:05.989Z,3.97
2023-04-25T08:55:35.564Z,4.63
2023-04-25T08:58:04.447Z,3.40
2023-04-25T09:00:32.838Z,5.20
2023-04-25T09:03:03.491Z,4.27
2023-04-25T09:05:35.618Z,5.13
2023-04-25T09:08:03.981Z,7.20
2023-04-25T09:13:09.658Z,5.37
2023-04-25T09:16:00.121Z,5.03
2023-04-25T09:18:48.346Z,3.73
2023-04-25T09:21:17.114Z,3.20
2023-04-25T09:23:50.748Z,2.60
2023-04-25T09:26:23.117Z,1.53
2023-04-25T09:29:08.165Z,1.53
2023-04-25T09:31:39.163Z,1.40
2023-04-25T09:34:16.496Z,1.10
2023-04-25T09:36:49.111Z,0.80
2023-04-25T09:39:43.006Z,1.93
2023-04-25T09:42:16.537Z,1.37
2023-04-25T09:44:46.361Z,1.10
2023-04-25T09:47:17.461Z,1.47
2023-04-25T09:49:47.950Z,0.97
2023-04-25T09:52:18.822Z,1.20
2023-04-25T09:55:10.281Z,0.90
2023-04-25T09:57:40.672Z,0.80
2023-04-25T10:00:13.892Z,0.80
2023-04-25T10:02:47.783Z,2.23
2023-04-25T10:05:36.682Z,0.83
2023-04-25T10:08:06.010Z,0.70
2023-04-25T10:10:37.232Z,1.50
2023-04-25T10:13:07.573Z,0.70
2023-04-25T10:15:40.154Z,1.73
2023-04-25T10:18:24.215Z,0.97
2023-04-25T10:20:54.487Z,0.73
2023-04-25T10:23:22.883Z,1.77
2023-04-25T10:25:52.946Z,1.50
2023-04-25T10:28:21.738Z,1.03
2023-04-25T10:31:09.245Z,0.80
2023-04-25T10:33:39.666Z,0.90
2023-04-25T10:36:14.148Z,0.97
2023-04-25T10:38:44.421Z,0.87
2023-04-25T10:41:14.524Z,0.50
2023-04-25T10:43:45.317Z,2.23
2023-04-25T10:46:21.706Z,3.70
2023-04-25T10:48:52.192Z,5.20
2023-04-25T10:51:29.535Z,3.77
2023-04-25T10:54:03.970Z,4.17
2023-04-25T10:56:33.662Z,4.33
2023-04-25T10:59:11.089Z,3.57
2023-04-25T11:01:43.308Z,4.07
2023-04-25T11:04:32.802Z,4.33
2023-04-25T11:07:24.437Z,2.63
2023-04-25T11:09:52.748Z,3.13
2023-04-25T11:12:21.008Z,2.33
2023-04-25T11:14:49.098Z,3.00
2023-04-25T11:17:17.301Z,2.83
2023-04-25T11:19:45.496Z,2.40
2023-04-25T11:22:14.996Z,4.53
2023-04-25T11:24:43.797Z,2.00
2023-04-25T11:27:12.029Z,2.80
2023-04-25T11:29:40.237Z,3.87
2023-04-25T11:32:08.512Z,3.07
2023-04-25T11:34:36.949Z,3.00
2023-04-25T11:37:07.086Z,1.87
2023-04-25T11:39:36.825Z,1.40
2023-04-25T11:42:14.018Z,3.37
2023-04-25T11:44:42.666Z,2.93
2023-04-25T11:47:10.853Z,3.03
2023-04-25T11:49:39.122Z,3.93
2023-04-25T11:52:09.216Z,3.90
2023-04-25T11:54:39.526Z,6.73
2023-04-25T11:57:07.673Z,4.13
2023-04-25T11:59:35.793Z,6.60
2023-04-25T12:02:03.932Z,4.70
2023-04-25T12:04:34.176Z,5.50
2023-04-25T12:07:03.292Z,7.23
2023-04-25T12:09:34.224Z,5.33
2023-04-25T12:12:04.687Z,4.67
2023-04-25T12:14:34.983Z,5.17
2023-04-25T12:17:05.295Z,4.67
2023-04-25T12:19:36.090Z,5.63
2023-04-25T12:22:05.794Z,5.60
2023-04-25T12:27:34.638Z,5.13
2023-04-25T12:30:04.369Z,4.57
2023-04-25T12:32:32.565Z,5.70
2023-04-25T12:35:00.963Z,6.37
2023-04-25T12:37:30.946Z,6.80
2023-04-25T12:39:59.033Z,5.97
2023-04-25T12:42:27.176Z,6.07
2023-04-25T12:44:56.624Z,6.53
2023-04-25T12:47:24.841Z,4.73
2023-04-25T12:49:52.913Z,5.23
2023-04-25T12:52:21.010Z,6.37
2023-04-25T12:54:49.152Z,6.87
2023-04-25T12:57:17.200Z,8.20
2023-04-25T12:59:45.381Z,7.93
2023-04-25T13:02:15.118Z,5.87
2023-04-25T13:04:43.231Z,4.87
2023-04-25T13:07:11.577Z,7.67
2023-04-25T13:09:39.649Z,6.50
2023-04-25T13:12:08.509Z,7.20
2023-04-25T13:14:36.603Z,7.27
2023-04-25T13:17:05.700Z,6.23
2023-04-25T13:19:35.308Z,5.43
2023-04-25T13:22:05.164Z,8.53
2023-04-25T13:24:33.485Z,8.83
2023-04-25T13:27:02.399Z,8.83
2023-04-25T13:29:30.532Z,8.70
2023-04-25T13:31:58.693Z,9.93
2023-04-25T13:34:29.522Z,8.27
2023-04-25T13:37:04.998Z,8.40
2023-04-25T13:39:33.362Z,8.53
2023-04-25T13:42:01.626Z,9.90
2023-04-25T13:44:29.802Z,9.43
2023-04-25T13:46:58.015Z,5.90
2023-04-25T13:49:26.248Z,9.90
2023-04-25T13:51:54.321Z,8.80
2023-04-25T13:54:24.133Z,11.10
2023-04-25T13:56:52.892Z,6.30
2023-04-25T13:59:20.947Z,6.50
2023-04-25T14:01:49.144Z,6.70
2023-04-25T14:04:17.321Z,8.60
2023-04-25T14:06:45.941Z,7.80
2023-04-25T14:09:14.293Z,10.20
2023-04-25T14:11:43.718Z,6.73
2023-04-25T14:14:13.062Z,6.27
2023-04-25T14:16:41.300Z,6.93
2023-04-25T14:19:09.509Z,5.67
2023-04-25T14:21:37.825Z,5.90
2023-04-25T14:24:07.409Z,6.37
2023-04-25T14:26:36.477Z,7.67
2023-04-25T14:29:07.069Z,6.37
2023-04-25T14:31:35.770Z,5.57
2023-04-25T14:34:04.610Z,7.67
2023-04-25T14:36:33.131Z,5.73
2023-04-25T14:39:01.951Z,6.63
2023-04-25T14:41:30.103Z,6.43
2023-04-25T14:43:58.588Z,9.87
2023-04-25T14:46:28.340Z,6.40
2023-04-25T14:48:57.316Z,5.77
2023-04-25T14:51:25.515Z,6.93
2023-04-25T14:53:54.010Z,4.27
2023-04-25T14:56:22.363Z,5.87
2023-04-25T14:58:50.794Z,5.57
2023-04-25T15:01:21.570Z,5.13
2023-04-25T15:03:52.312Z,5.43
2023-04-25T15:06:20.738Z,4.07
2023-04-25T15:08:48.815Z,8.53
2023-04-25T15:11:16.999Z,7.63
2023-04-25T15:13:46.156Z,5.80
2023-04-25T15:16:15.192Z,4.53
2023-04-25T15:18:43.449Z,5.10
2023-04-25T15:21:12.978Z,7.13
2023-04-25T15:23:41.383Z,8.43
2023-04-25T15:26:10.327Z,5.50
2023-04-25T15:28:38.528Z,4.87
2023-04-25T15:31:07.014Z,8.33
2023-04-25T15:33:36.160Z,7.50
2023-04-25T15:36:05.062Z,7.63
2023-04-25T15:38:34.438Z,8.13
2023-04-25T15:41:03.787Z,6.27
2023-04-25T15:43:32.873Z,7.20
2023-04-25T15:46:01.391Z,8.07
2023-04-25T15:48:29.545Z,8.67
2023-04-25T15:50:57.701Z,6.00
2023-04-25T15:53:25.955Z,8.23
2023-04-25T15:55:55.625Z,9.77
2023-04-25T15:58:23.896Z,6.23
2023-04-25T16:00:52.031Z,8.43
2023-04-25T16:03:20.350Z,8.27
2023-04-25T16:05:49.140Z,8.33
2023-04-25T16:08:18.074Z,10.37
2023-04-25T16:10:46.236Z,9.10
2023-04-25T16:13:15.727Z,5.43
2023-04-25T16:15:43.855Z,6.83
2023-04-25T16:18:12.093Z,5.63
2023-04-25T16:20:40.382Z,7.10
2023-04-25T16:23:08.468Z,8.40
2023-04-25T16:25:36.577Z,10.77
2023-04-25T16:28:04.832Z,6.47
2023-04-25T16:30:34.338Z,7.53
2023-04-25T16:33:02.573Z,5.20
2023-04-25T16:35:32.453Z,6.83
2023-04-25T16:38:00.714Z,7.20
2023-04-25T16:40:28.828Z,6.43
2023-04-25T16:42:57.220Z,7.57
2023-04-25T16:45:26.244Z,7.60
2023-04-25T16:47:55.863Z,5.97
2023-04-25T16:50:24.021Z,7.03
2023-04-25T16:52:52.246Z,6.33
2023-04-25T16:55:20.758Z,5.50
2023-04-25T16:57:48.817Z,6.07
2023-04-25T17:00:18.654Z,6.63
2023-04-25T17:02:47.284Z,8.07
2023-04-25T17:05:17.062Z,6.47
2023-04-25T17:07:45.229Z,5.77
2023-04-25T17:10:13.341Z,8.87
2023-04-25T17:12:41.468Z,7.17
2023-04-25T17:15:11.271Z,6.57
2023-04-25T17:17:39.577Z,6.03
2023-04-25T17:20:09.915Z,6.93
2023-04-25T17:22:44.314Z,6.33
2023-04-25T17:25:19.919Z,13.17
2023-04-25T17:27:48.095Z,4.83
2023-04-25T17:33:10.208Z,6.00
2023-04-25T17:35:38.361Z,8.23
2023-04-25T17:38:08.002Z,6.13
2023-04-25T17:40:36.687Z,6.63
2023-04-25T17:43:04.856Z,4.23
2023-04-25T17:45:34.803Z,4.50
2023-04-25T17:48:03.714Z,7.27
2023-04-25T17:50:32.589Z,6.77
2023-04-25T17:53:03.200Z,4.60
2023-04-25T17:55:32.603Z,3.87
2023-04-25T17:58:00.856Z,7.10
2023-04-25T18:00:30.091Z,4.80
2023-04-25T18:02:58.584Z,3.43
2023-04-25T18:05:27.858Z,4.03
2023-04-25T18:07:57.523Z,3.40
2023-04-25T18:10:25.874Z,4.23
2023-04-25T18:12:55.304Z,6.43
2023-04-25T18:15:23.533Z,7.40
2023-04-25T18:17:52.279Z,4.10
2023-04-25T18:20:21.607Z,4.23
2023-04-25T18:22:49.677Z,5.00
2023-04-25T18:25:18.271Z,8.90
2023-04-25T18:27:46.741Z,14.40
2023-04-25T18:30:16.230Z,12.53
2023-04-25T18:32:44.485Z,10.23
2023-04-25T18:35:12.602Z,6.13
2023-04-25T18:37:42.319Z,6.87
2023-04-25T18:40:14.265Z,5.77
2023-04-25T18:42:43.051Z,7.50
2023-04-25T18:45:12.675Z,7.30
2023-04-25T18:47:43.979Z,9.20
2023-04-25T18:50:12.862Z,9.63
2023-04-25T18:52:42.245Z,5.47
2023-04-25T18:55:11.283Z,9.57
2023-04-25T18:57:40.232Z,8.97
2023-04-25T19:00:11.268Z,6.07
2023-04-25T19:02:39.732Z,7.50
2023-04-25T19:05:11.113Z,4.17
2023-04-25T19:07:40.476Z,4.90
2023-04-25T19:10:09.964Z,5.23
2023-04-25T19:12:38.009Z,3.37
2023-04-25T19:15:09.740Z,2.97
2023-04-25T19:17:37.892Z,6.37
2023-04-25T19:20:09.396Z,2.87
2023-04-25T19:22:37.520Z,6.13
2023-04-25T19:25:10.772Z,10.33
2023-04-25T19:27:39.503Z,6.00
2023-04-25T19:30:10.715Z,4.80
2023-04-25T19:32:39.461Z,4.47
2023-04-25T19:35:11.789Z,3.60
2023-04-25T19:37:45.903Z,4.07
2023-04-25T19:40:18.116Z,3.53
2023-04-25T19:42:46.431Z,3.07
2023-04-25T19:45:14.483Z,4.10
2023-04-25T19:47:43.776Z,4.03
2023-04-25T19:50:13.929Z,2.67
2023-04-25T19:52:42.188Z,5.87
2023-04-25T19:55:11.339Z,3.97
2023-04-25T19:57:39.491Z,2.87
2023-04-25T20:00:11.952Z,5.50
2023-04-25T20:02:41.150Z,7.10
2023-04-25T20:05:10.722Z,2.13
2023-04-25T20:07:40.556Z,2.83
2023-04-25T20:10:13.293Z,2.20
2023-04-25T20:12:42.314Z,3.13
2023-04-25T20:15:12.122Z,6.57
2023-04-25T20:17:41.638Z,5.13
2023-04-25T20:20:11.592Z,7.80
2023-04-25T20:22:41.138Z,6.93
2023-04-25T20:25:12.245Z,6.97
2023-04-25T20:27:40.616Z,7.30
2023-04-25T20:30:12.051Z,5.60
2023-04-25T20:32:40.395Z,4.83
2023-04-25T20:35:10.220Z,4.03
2023-04-25T20:37:39.709Z,5.33
2023-04-25T20:40:10.118Z,5.37
2023-04-25T20:42:38.364Z,4.37
2023-04-25T20:45:12.904Z,3.40
2023-04-25T20:47:42.738Z,3.43
2023-04-25T20:50:12.155Z,4.93
2023-04-25T20:52:41.632Z,4.60
2023-04-25T20:55:11.811Z,5.03
2023-04-25T20:57:39.916Z,4.37
2023-04-25T21:00:16.672Z,4.50
2023-04-25T21:02:45.145Z,4.60
2023-04-25T21:05:13.586Z,3.30
2023-04-25T21:07:44.476Z,5.03
2023-04-25T21:10:12.919Z,4.77
2023-04-25T21:12:41.126Z,3.60
2023-04-25T21:15:16.714Z,4.67
2023-04-25T21:17:47.260Z,4.00
2023-04-25T21:20:17.745Z,5.57
2023-04-25T21:22:51.788Z,4.40
2023-04-25T21:25:31.100Z,3.23
2023-04-25T21:28:02.089Z,4.00
2023-04-25T21:30:30.766Z,5.07
2023-04-25T21:32:58.812Z,4.70
2023-04-25T21:35:26.886Z,3.33
2023-04-25T21:37:56.242Z,5.27
2023-04-25T21:40:24.459Z,4.90
2023-04-25T21:42:53.528Z,6.57
2023-04-25T21:45:22.360Z,4.53
2023-04-25T21:47:51.046Z,8.90
2023-04-25T21:50:19.729Z,5.67
2023-04-25T21:52:48.168Z,5.77
2023-04-25T21:55:19.630Z,4.97
2023-04-25T21:57:47.817Z,6.13
2023-04-25T22:00:24.532Z,7.53
2023-04-25T22:02:53.630Z,3.30
2023-04-25T22:05:22.536Z,4.13
2023-04-25T22:07:52.991Z,6.80
2023-04-25T22:10:23.115Z,7.67
2023-04-25T22:12:51.475Z,6.53
2023-04-25T22:15:21.447Z,6.87
2023-04-25T22:17:49.582Z,6.97
2023-04-25T22:20:23.054Z,9.40
2023-04-25T22:22:51.222Z,10.93
2023-04-25T22:25:19.579Z,6.67
2023-04-25T22:27:49.337Z,8.17
2023-04-25T22:30:18.309Z,6.70
2023-04-25T22:32:46.431Z,7.37
2023-04-25T22:35:14.594Z,7.47
2023-04-25T22:37:42.869Z,8.80
2023-04-25T22:40:12.120Z,8.10
2023-04-25T22:42:41.076Z,6.67
2023-04-25T22:45:12.429Z,9.40
2023-04-25T22:47:41.725Z,8.57
2023-04-25T22:50:14.720Z,7.20
2023-04-25T22:52:43.034Z,9.10
2023-04-25T22:55:12.103Z,6.70
2023-04-25T22:57:41.419Z,9.67
2023-04-25T23:00:19.618Z,6.00
2023-04-25T23:02:47.991Z,7.33
2023-04-25T23:05:16.545Z,8.93
2023-04-25T23:07:45.020Z,9.57
2023-04-25T23:10:14.190Z,5.90
2023-04-25T23:12:42.734Z,7.97
2023-04-25T23:15:13.428Z,7.77
2023-04-25T23:17:42.105Z,8.73
2023-04-25T23:20:12.087Z,8.60
2023-04-25T23:22:40.515Z,7.40
2023-04-25T23:25:10.415Z,5.10
2023-04-25T23:27:38.530Z,6.43
2023-04-25T23:30:09.076Z,6.37
2023-04-25T23:32:38.785Z,5.23
2023-04-25T23:35:08.114Z,7.77
2023-04-25T23:37:37.057Z,6.73
2023-04-25T23:40:09.770Z,7.10
2023-04-25T23:42:38.512Z,9.20
2023-04-25T23:45:10.133Z,6.90
2023-04-25T23:47:39.696Z,6.27
2023-04-25T23:50:09.544Z,6.73
2023-04-25T23:52:37.877Z,5.83
2023-04-25T23:55:07.261Z,6.10
2023-04-25T23:57:35.400Z,4.63
